sensor_id;sensor_type;location;lat;lon;timestamp;P1;durP1;ratioP1;P2;durP2;ratioP2
16600;SDS011;34891;48.164;11.572;2023-05-27T00:04:33;13.63;;;6.07;;
16600;SDS011;34891;48.164;11.572;2023-05-27T00:09:36;11.43;;;5.80;;
16600;SDS011;34891;48.164;11.572;2023-05-27T00:14:39;12.55;;;5.90;;
16600;SDS011;34891;48.164;11.572;2023-05-27T00:19:43;14.57;;;6.03;;
16600;SDS011;34891;48.164;11.572;2023-05-27T00:24:46;14.63;;;6.40;;
16600;SDS011;34891;48.164;11.572;2023-05-27T00:29:48;17.70;;;6.35;;
16600;SDS011;34891;48.164;11.572;2023-05-27T00:34:52;12.88;;;6.60;;
16600;SDS011;34891;48.164;11.572;2023-05-27T00:44:57;15.05;;;7.10;;
16600;SDS011;34891;48.164;11.572;2023-05-27T00:50:02;14.98;;;6.65;;
16600;SDS011;34891;48.164;11.572;2023-05-27T00:55:06;12.93;;;5.65;;
16600;SDS011;34891;48.164;11.572;2023-05-27T01:00:09;13.07;;;6.47;;
16600;SDS011;34891;48.164;11.572;2023-05-27T01:05:14;14.45;;;6.10;;
16600;SDS011;34891;48.164;11.572;2023-05-27T01:10:19;18.88;;;7.40;;
16600;SDS011;34891;48.164;11.572;2023-05-27T01:15:25;14.20;;;6.05;;
16600;SDS011;34891;48.164;11.572;2023-05-27T01:20:29;13.87;;;6.83;;
16600;SDS011;34891;48.164;11.572;2023-05-27T01:25:34;16.88;;;6.40;;
16600;SDS011;34891;48.164;11.572;2023-05-27T01:30:37;18.90;;;7.20;;
16600;SDS011;34891;48.164;11.572;2023-05-27T01:35:40;14.73;;;6.47;;
16600;SDS011;34891;48.164;11.572;2023-05-27T01:40:45;15.45;;;6.93;;
16600;SDS011;34891;48.164;11.572;2023-05-27T01:45:48;18.67;;;7.10;;
16600;SDS011;34891;48.164;11.572;2023-05-27T01:50:51;18.60;;;7.45;;
16600;SDS011;34891;48.164;11.572;2023-05-27T01:55:55;11.35;;;6.97;;
16600;SDS011;34891;48.164;11.572;2023-05-27T02:06:00;13.27;;;6.72;;
16600;SDS011;34891;48.164;11.572;2023-05-27T02:11:04;12.15;;;6.47;;
16600;SDS011;34891;48.164;11.572;2023-05-27T02:16:07;15.95;;;6.75;;
16600;SDS011;34891;48.164;11.572;2023-05-27T02:21:09;15.18;;;6.70;;
16600;SDS011;34891;48.164;11.572;2023-05-27T02:26:14;12.20;;;6.95;;
16600;SDS011;34891;48.164;11.572;2023-05-27T02:36:19;14.00;;;6.72;;
16600;SDS011;34891;48.164;11.572;2023-05-27T02:41:24;12.85;;;6.30;;
16600;SDS011;34891;48.164;11.572;2023-05-27T02:51:29;14.32;;;7.22;;
16600;SDS011;34891;48.164;11.572;2023-05-27T02:56:33;15.27;;;6.75;;
16600;SDS011;34891;48.164;11.572;2023-05-27T03:06:38;13.50;;;6.90;;
16600;SDS011;34891;48.164;11.572;2023-05-27T03:11:43;15.57;;;7.57;;
16600;SDS011;34891;48.164;11.572;2023-05-27T03:21:48;16.70;;;7.38;;
16600;SDS011;34891;48.164;11.572;2023-05-27T03:26:55;14.80;;;5.68;;
16600;SDS011;34891;48.164;11.572;2023-05-27T03:31:57;16.00;;;6.55;;
16600;SDS011;34891;48.164;11.572;2023-05-27T03:37:00;15.13;;;7.00;;
16600;SDS011;34891;48.164;11.572;2023-05-27T03:42:05;16.30;;;6.68;;
16600;SDS011;34891;48.164;11.572;2023-05-27T03:47:07;14.82;;;6.53;;
16600;SDS011;34891;48.164;11.572;2023-05-27T03:52:10;11.05;;;5.78;;
16600;SDS011;34891;48.164;11.572;2023-05-27T03:57:14;15.63;;;6.63;;
16600;SDS011;34891;48.164;11.572;2023-05-27T04:02:17;15.05;;;6.10;;
16600;SDS011;34891;48.164;11.572;2023-05-27T04:07:20;13.82;;;6.30;;
16600;SDS011;34891;48.164;11.572;2023-05-27T04:12:29;11.25;;;5.43;;
16600;SDS011;34891;48.164;11.572;2023-05-27T04:17:32;15.75;;;6.30;;
16600;SDS011;34891;48.164;11.572;2023-05-27T04:22:34;16.60;;;6.80;;
16600;SDS011;34891;48.164;11.572;2023-05-27T04:27:38;14.35;;;6.72;;
16600;SDS011;34891;48.164;11.572;2023-05-27T04:32:41;15.32;;;6.28;;
16600;SDS011;34891;48.164;11.572;2023-05-27T04:37:45;15.85;;;6.32;;
16600;SDS011;34891;48.164;11.572;2023-05-27T04:47:52;15.70;;;6.00;;
16600;SDS011;34891;48.164;11.572;2023-05-27T04:52:55;12.63;;;5.65;;
16600;SDS011;34891;48.164;11.572;2023-05-27T04:58:00;14.95;;;6.00;;
16600;SDS011;34891;48.164;11.572;2023-05-27T05:03:06;11.40;;;5.65;;
16600;SDS011;34891;48.164;11.572;2023-05-27T05:08:10;9.80;;;5.28;;
16600;SDS011;34891;48.164;11.572;2023-05-27T05:13:12;15.48;;;5.90;;
16600;SDS011;34891;48.164;11.572;2023-05-27T05:18:17;12.63;;;5.40;;
16600;SDS011;34891;48.164;11.572;2023-05-27T05:23:20;12.70;;;5.75;;
16600;SDS011;34891;48.164;11.572;2023-05-27T05:28:22;13.20;;;5.47;;
16600;SDS011;34891;48.164;11.572;2023-05-27T05:33:26;12.88;;;4.93;;
16600;SDS011;34891;48.164;11.572;2023-05-27T05:38:29;12.10;;;5.07;;
16600;SDS011;34891;48.164;11.572;2023-05-27T05:43:32;14.30;;;5.37;;
16600;SDS011;34891;48.164;11.572;2023-05-27T05:48:36;12.68;;;5.53;;
16600;SDS011;34891;48.164;11.572;2023-05-27T05:53:38;12.95;;;5.50;;
16600;SDS011;34891;48.164;11.572;2023-05-27T05:58:41;10.27;;;5.13;;
16600;SDS011;34891;48.164;11.572;2023-05-27T06:03:45;11.50;;;4.82;;
16600;SDS011;34891;48.164;11.572;2023-05-27T06:08:48;9.40;;;4.55;;
16600;SDS011;34891;48.164;11.572;2023-05-27T06:13:51;9.65;;;4.45;;
16600;SDS011;34891;48.164;11.572;2023-05-27T06:18:55;11.25;;;5.38;;
16600;SDS011;34891;48.164;11.572;2023-05-27T06:23:57;11.77;;;5.15;;
16600;SDS011;34891;48.164;11.572;2023-05-27T06:29:00;8.85;;;4.32;;
16600;SDS011;34891;48.164;11.572;2023-05-27T06:34:04;13.10;;;4.65;;
16600;SDS011;34891;48.164;11.572;2023-05-27T06:39:07;11.73;;;4.90;;
16600;SDS011;34891;48.164;11.572;2023-05-27T06:44:10;12.07;;;3.80;;
16600;SDS011;34891;48.164;11.572;2023-05-27T06:49:14;10.52;;;4.13;;
16600;SDS011;34891;48.164;11.572;2023-05-27T06:54:16;9.18;;;3.85;;
16600;SDS011;34891;48.164;11.572;2023-05-27T06:59:19;10.82;;;4.13;;
16600;SDS011;34891;48.164;11.572;2023-05-27T07:04:23;10.75;;;3.33;;
16600;SDS011;34891;48.164;11.572;2023-05-27T07:09:26;10.30;;;3.60;;
16600;SDS011;34891;48.164;11.572;2023-05-27T07:14:28;8.38;;;3.60;;
16600;SDS011;34891;48.164;11.572;2023-05-27T07:19:32;8.10;;;3.57;;
16600;SDS011;34891;48.164;11.572;2023-05-27T07:24:35;9.88;;;3.80;;
16600;SDS011;34891;48.164;11.572;2023-05-27T07:29:37;11.83;;;3.90;;
16600;SDS011;34891;48.164;11.572;2023-05-27T07:34:42;9.30;;;4.00;;
16600;SDS011;34891;48.164;11.572;2023-05-27T07:39:44;11.30;;;3.67;;
16600;SDS011;34891;48.164;11.572;2023-05-27T07:44:47;9.47;;;3.60;;
16600;SDS011;34891;48.164;11.572;2023-05-27T07:49:51;12.07;;;4.25;;
16600;SDS011;34891;48.164;11.572;2023-05-27T07:54:53;9.88;;;4.45;;
16600;SDS011;34891;48.164;11.572;2023-05-27T07:59:57;9.52;;;4.65;;
16600;SDS011;34891;48.164;11.572;2023-05-27T08:05:01;9.38;;;5.15;;
16600;SDS011;34891;48.164;11.572;2023-05-27T08:10:05;10.25;;;4.25;;
16600;SDS011;34891;48.164;11.572;2023-05-27T08:15:09;10.18;;;4.50;;
16600;SDS011;34891;48.164;11.572;2023-05-27T08:20:13;9.23;;;4.60;;
16600;SDS011;34891;48.164;11.572;2023-05-27T08:25:15;10.88;;;5.07;;
16600;SDS011;34891;48.164;11.572;2023-05-27T08:30:18;9.07;;;4.45;;
16600;SDS011;34891;48.164;11.572;2023-05-27T08:35:22;10.40;;;4.80;;
16600;SDS011;34891;48.164;11.572;2023-05-27T08:40:25;11.32;;;5.30;;
16600;SDS011;34891;48.164;11.572;2023-05-27T08:45:28;9.48;;;4.75;;
16600;SDS011;34891;48.164;11.572;2023-05-27T08:50:34;10.95;;;5.00;;
16600;SDS011;34891;48.164;11.572;2023-05-27T08:55:36;10.55;;;5.18;;
16600;SDS011;34891;48.164;11.572;2023-05-27T09:00:40;10.18;;;5.38;;
16600;SDS011;34891;48.164;11.572;2023-05-27T09:05:44;12.43;;;5.25;;
16600;SDS011;34891;48.164;11.572;2023-05-27T09:10:47;9.98;;;5.55;;
16600;SDS011;34891;48.164;11.572;2023-05-27T09:15:50;12.07;;;5.82;;
16600;SDS011;34891;48.164;11.572;2023-05-27T09:21:00;11.43;;;5.35;;
16600;SDS011;34891;48.164;11.572;2023-05-27T09:26:06;9.00;;;5.43;;
16600;SDS011;34891;48.164;11.572;2023-05-27T09:31:09;11.52;;;5.35;;
16600;SDS011;34891;48.164;11.572;2023-05-27T09:36:19;11.48;;;5.38;;
16600;SDS011;34891;48.164;11.572;2023-05-27T09:41:22;10.63;;;5.72;;
16600;SDS011;34891;48.164;11.572;2023-05-27T09:46:26;11.05;;;6.10;;
16600;SDS011;34891;48.164;11.572;2023-05-27T09:51:31;8.38;;;5.93;;
16600;SDS011;34891;48.164;11.572;2023-05-27T09:56:34;8.50;;;5.43;;
16600;SDS011;34891;48.164;11.572;2023-05-27T10:01:37;10.82;;;5.78;;
16600;SDS011;34891;48.164;11.572;2023-05-27T10:06:43;9.55;;;6.13;;
16600;SDS011;34891;48.164;11.572;2023-05-27T10:11:46;9.98;;;6.30;;
16600;SDS011;34891;48.164;11.572;2023-05-27T10:16:52;11.60;;;6.40;;
16600;SDS011;34891;48.164;11.572;2023-05-27T10:22:06;9.65;;;5.60;;
16600;SDS011;34891;48.164;11.572;2023-05-27T10:27:09;8.40;;;5.35;;
16600;SDS011;34891;48.164;11.572;2023-05-27T10:32:12;9.38;;;5.50;;
16600;SDS011;34891;48.164;11.572;2023-05-27T10:37:20;8.38;;;5.05;;
16600;SDS011;34891;48.164;11.572;2023-05-27T10:47:28;9.82;;;5.50;;
16600;SDS011;34891;48.164;11.572;2023-05-27T10:52:32;8.10;;;4.88;;
16600;SDS011;34891;48.164;11.572;2023-05-27T10:57:38;9.80;;;5.40;;
16600;SDS011;34891;48.164;11.572;2023-05-27T11:02:41;8.77;;;5.50;;
16600;SDS011;34891;48.164;11.572;2023-05-27T11:07:46;7.65;;;5.28;;
16600;SDS011;34891;48.164;11.572;2023-05-27T11:12:49;8.88;;;4.93;;
16600;SDS011;34891;48.164;11.572;2023-05-27T11:17:52;10.85;;;5.20;;
16600;SDS011;34891;48.164;11.572;2023-05-27T11:22:56;9.40;;;4.70;;
16600;SDS011;34891;48.164;11.572;2023-05-27T11:27:58;9.00;;;4.90;;
16600;SDS011;34891;48.164;11.572;2023-05-27T11:33:01;9.20;;;5.13;;
16600;SDS011;34891;48.164;11.572;2023-05-27T11:38:15;7.50;;;4.80;;
16600;SDS011;34891;48.164;11.572;2023-05-27T11:43:18;8.75;;;4.80;;
16600;SDS011;34891;48.164;11.572;2023-05-27T11:48:21;9.27;;;4.28;;
16600;SDS011;34891;48.164;11.572;2023-05-27T11:53:26;11.88;;;4.38;;
16600;SDS011;34891;48.164;11.572;2023-05-27T11:58:30;8.50;;;4.43;;
16600;SDS011;34891;48.164;11.572;2023-05-27T12:03:33;9.65;;;4.93;;
16600;SDS011;34891;48.164;11.572;2023-05-27T12:08:37;7.05;;;4.20;;
16600;SDS011;34891;48.164;11.572;2023-05-27T12:13:40;8.05;;;4.05;;
16600;SDS011;34891;48.164;11.572;2023-05-27T12:18:43;11.25;;;4.28;;
16600;SDS011;34891;48.164;11.572;2023-05-27T12:23:47;7.63;;;3.85;;
16600;SDS011;34891;48.164;11.572;2023-05-27T12:28:50;7.05;;;4.00;;
16600;SDS011;34891;48.164;11.572;2023-05-27T12:33:53;7.72;;;3.90;;
16600;SDS011;34891;48.164;11.572;2023-05-27T12:38:57;7.30;;;4.25;;
16600;SDS011;34891;48.164;11.572;2023-05-27T12:44:01;9.70;;;4.20;;
16600;SDS011;34891;48.164;11.572;2023-05-27T12:49:04;7.68;;;3.92;;
16600;SDS011;34891;48.164;11.572;2023-05-27T12:54:10;10.60;;;3.63;;
16600;SDS011;34891;48.164;11.572;2023-05-27T12:59:13;11.35;;;4.00;;
16600;SDS011;34891;48.164;11.572;2023-05-27T13:04:16;7.35;;;3.92;;
16600;SDS011;34891;48.164;11.572;2023-05-27T13:09:20;9.95;;;3.70;;
16600;SDS011;34891;48.164;11.572;2023-05-27T13:14:26;7.70;;;3.40;;
16600;SDS011;34891;48.164;11.572;2023-05-27T13:19:30;7.70;;;3.63;;
16600;SDS011;34891;48.164;11.572;2023-05-27T13:24:34;6.90;;;3.63;;
16600;SDS011;34891;48.164;11.572;2023-05-27T13:29:38;6.20;;;3.50;;
16600;SDS011;34891;48.164;11.572;2023-05-27T13:34:42;8.65;;;3.20;;
16600;SDS011;34891;48.164;11.572;2023-05-27T13:39:46;8.77;;;3.30;;
16600;SDS011;34891;48.164;11.572;2023-05-27T13:44:49;8.63;;;3.53;;
16600;SDS011;34891;48.164;11.572;2023-05-27T13:49:53;9.98;;;4.13;;
16600;SDS011;34891;48.164;11.572;2023-05-27T13:54:57;9.00;;;3.70;;
16600;SDS011;34891;48.164;11.572;2023-05-27T14:00:00;10.60;;;3.30;;
16600;SDS011;34891;48.164;11.572;2023-05-27T14:05:04;6.47;;;3.35;;
16600;SDS011;34891;48.164;11.572;2023-05-27T14:10:09;8.10;;;3.53;;
16600;SDS011;34891;48.164;11.572;2023-05-27T14:15:12;7.32;;;2.90;;
16600;SDS011;34891;48.164;11.572;2023-05-27T14:20:15;10.18;;;3.33;;
16600;SDS011;34891;48.164;11.572;2023-05-27T14:25:20;8.73;;;3.50;;
16600;SDS011;34891;48.164;11.572;2023-05-27T14:30:23;6.80;;;3.35;;
16600;SDS011;34891;48.164;11.572;2023-05-27T14:35:27;6.07;;;3.17;;
16600;SDS011;34891;48.164;11.572;2023-05-27T14:40:31;9.02;;;3.20;;
16600;SDS011;34891;48.164;11.572;2023-05-27T14:45:35;5.50;;;2.95;;
16600;SDS011;34891;48.164;11.572;2023-05-27T14:50:37;9.68;;;3.10;;
16600;SDS011;34891;48.164;11.572;2023-05-27T14:55:49;6.97;;;2.70;;
16600;SDS011;34891;48.164;11.572;2023-05-27T15:00:54;9.05;;;3.55;;
16600;SDS011;34891;48.164;11.572;2023-05-27T15:05:58;6.80;;;3.80;;
16600;SDS011;34891;48.164;11.572;2023-05-27T15:11:03;6.65;;;3.08;;
16600;SDS011;34891;48.164;11.572;2023-05-27T15:16:06;5.65;;;3.00;;
16600;SDS011;34891;48.164;11.572;2023-05-27T15:21:08;9.32;;;3.38;;
16600;SDS011;34891;48.164;11.572;2023-05-27T15:26:13;7.53;;;2.92;;
16600;SDS011;34891;48.164;11.572;2023-05-27T15:31:16;5.72;;;2.35;;
16600;SDS011;34891;48.164;11.572;2023-05-27T15:36:19;6.43;;;3.00;;
16600;SDS011;34891;48.164;11.572;2023-05-27T15:41:24;13.45;;;4.28;;
16600;SDS011;34891;48.164;11.572;2023-05-27T15:46:27;6.63;;;2.50;;
16600;SDS011;34891;48.164;11.572;2023-05-27T15:51:31;8.85;;;2.75;;
16600;SDS011;34891;48.164;11.572;2023-05-27T15:56:35;5.88;;;2.30;;
16600;SDS011;34891;48.164;11.572;2023-05-27T16:01:38;5.47;;;2.50;;
16600;SDS011;34891;48.164;11.572;2023-05-27T16:06:41;5.82;;;2.38;;
16600;SDS011;34891;48.164;11.572;2023-05-27T16:11:47;8.20;;;2.75;;
16600;SDS011;34891;48.164;11.572;2023-05-27T16:16:51;5.97;;;2.40;;
16600;SDS011;34891;48.164;11.572;2023-05-27T16:21:54;6.20;;;2.25;;
16600;SDS011;34891;48.164;11.572;2023-05-27T16:26:58;5.78;;;2.25;;
16600;SDS011;34891;48.164;11.572;2023-05-27T16:32:02;5.85;;;2.15;;
16600;SDS011;34891;48.164;11.572;2023-05-27T16:37:08;5.93;;;2.30;;
16600;SDS011;34891;48.164;11.572;2023-05-27T16:42:12;5.43;;;2.03;;
16600;SDS011;34891;48.164;11.572;2023-05-27T16:47:15;6.05;;;2.45;;
16600;SDS011;34891;48.164;11.572;2023-05-27T16:52:18;6.03;;;2.28;;
16600;SDS011;34891;48.164;11.572;2023-05-27T16:57:23;6.72;;;2.17;;
16600;SDS011;34891;48.164;11.572;2023-05-27T17:02:26;5.57;;;2.17;;
16600;SDS011;34891;48.164;11.572;2023-05-27T17:07:30;8.07;;;2.20;;
16600;SDS011;34891;48.164;11.572;2023-05-27T17:12:34;5.90;;;2.45;;
16600;SDS011;34891;48.164;11.572;2023-05-27T17:17:36;5.00;;;2.00;;
16600;SDS011;34891;48.164;11.572;2023-05-27T17:22:39;4.93;;;2.20;;
16600;SDS011;34891;48.164;11.572;2023-05-27T17:32:48;6.63;;;2.15;;
16600;SDS011;34891;48.164;11.572;2023-05-27T17:37:51;3.92;;;1.90;;
16600;SDS011;34891;48.164;11.572;2023-05-27T17:42:54;6.70;;;2.30;;
16600;SDS011;34891;48.164;11.572;2023-05-27T17:47:59;8.18;;;2.13;;
16600;SDS011;34891;48.164;11.572;2023-05-27T17:53:02;6.72;;;2.10;;
16600;SDS011;34891;48.164;11.572;2023-05-27T17:58:05;5.80;;;2.28;;
16600;SDS011;34891;48.164;11.572;2023-05-27T18:03:09;6.82;;;1.90;;
16600;SDS011;34891;48.164;11.572;2023-05-27T18:08:12;4.35;;;1.85;;
16600;SDS011;34891;48.164;11.572;2023-05-27T18:13:15;6.57;;;2.88;;
16600;SDS011;34891;48.164;11.572;2023-05-27T18:18:19;9.83;;;3.23;;
16600;SDS011;34891;48.164;11.572;2023-05-27T18:23:22;7.30;;;3.67;;
16600;SDS011;34891;48.164;11.572;2023-05-27T18:28:25;6.63;;;2.15;;
16600;SDS011;34891;48.164;11.572;2023-05-27T18:33:29;5.57;;;1.97;;
16600;SDS011;34891;48.164;11.572;2023-05-27T18:38:32;7.35;;;2.33;;
16600;SDS011;34891;48.164;11.572;2023-05-27T18:43:36;6.00;;;2.42;;
16600;SDS011;34891;48.164;11.572;2023-05-27T18:48:41;7.45;;;2.90;;
16600;SDS011;34891;48.164;11.572;2023-05-27T18:53:43;8.43;;;2.92;;
16600;SDS011;34891;48.164;11.572;2023-05-27T18:58:46;6.20;;;2.23;;
16600;SDS011;34891;48.164;11.572;2023-05-27T19:03:51;7.93;;;2.42;;
16600;SDS011;34891;48.164;11.572;2023-05-27T19:08:53;6.45;;;2.30;;
16600;SDS011;34891;48.164;11.572;2023-05-27T19:13:56;6.20;;;2.33;;
16600;SDS011;34891;48.164;11.572;2023-05-27T19:19:00;6.47;;;2.07;;
16600;SDS011;34891;48.164;11.572;2023-05-27T19:24:03;8.93;;;2.25;;
16600;SDS011;34891;48.164;11.572;2023-05-27T19:29:06;9.07;;;2.60;;
16600;SDS011;34891;48.164;11.572;2023-05-27T19:34:11;7.18;;;2.15;;
16600;SDS011;34891;48.164;11.572;2023-05-27T19:39:13;7.05;;;2.60;;
16600;SDS011;34891;48.164;11.572;2023-05-27T19:44:19;7.15;;;2.50;;
16600;SDS011;34891;48.164;11.572;2023-05-27T19:54:26;5.47;;;1.95;;
16600;SDS011;34891;48.164;11.572;2023-05-27T19:59:29;6.05;;;2.33;;
16600;SDS011;34891;48.164;11.572;2023-05-27T20:04:31;5.80;;;2.50;;
16600;SDS011;34891;48.164;11.572;2023-05-27T20:09:35;7.68;;;2.40;;
16600;SDS011;34891;48.164;11.572;2023-05-27T20:14:38;7.45;;;2.97;;
16600;SDS011;34891;48.164;11.572;2023-05-27T20:19:41;7.77;;;2.80;;
16600;SDS011;34891;48.164;11.572;2023-05-27T20:24:45;6.50;;;2.70;;
16600;SDS011;34891;48.164;11.572;2023-05-27T20:29:48;6.50;;;2.90;;
16600;SDS011;34891;48.164;11.572;2023-05-27T20:34:51;6.87;;;2.30;;
16600;SDS011;34891;48.164;11.572;2023-05-27T20:39:57;6.80;;;2.47;;
16600;SDS011;34891;48.164;11.572;2023-05-27T20:45:00;5.60;;;2.83;;
16600;SDS011;34891;48.164;11.572;2023-05-27T20:50:02;5.68;;;2.83;;
16600;SDS011;34891;48.164;11.572;2023-05-27T20:55:07;7.75;;;2.97;;
16600;SDS011;34891;48.164;11.572;2023-05-27T21:00:10;7.15;;;2.90;;
16600;SDS011;34891;48.164;11.572;2023-05-27T21:05:13;8.33;;;2.63;;
16600;SDS011;34891;48.164;11.572;2023-05-27T21:10:17;7.37;;;2.93;;
16600;SDS011;34891;48.164;11.572;2023-05-27T21:15:21;5.88;;;2.83;;
16600;SDS011;34891;48.164;11.572;2023-05-27T21:20:24;7.30;;;2.80;;
16600;SDS011;34891;48.164;11.572;2023-05-27T21:25:28;7.05;;;2.58;;
16600;SDS011;34891;48.164;11.572;2023-05-27T21:30:31;8.63;;;2.88;;
16600;SDS011;34891;48.164;11.572;2023-05-27T21:35:34;7.73;;;2.80;;
16600;SDS011;34891;48.164;11.572;2023-05-27T21:40:38;8.80;;;3.13;;
16600;SDS011;34891;48.164;11.572;2023-05-27T21:45:41;9.18;;;2.75;;
16600;SDS011;34891;48.164;11.572;2023-05-27T21:50:44;6.87;;;2.60;;
16600;SDS011;34891;48.164;11.572;2023-05-27T21:55:51;14.70;;;2.85;;
16600;SDS011;34891;48.164;11.572;2023-05-27T22:00:54;6.88;;;3.08;;
16600;SDS011;34891;48.164;11.572;2023-05-27T22:05:57;7.40;;;2.85;;
16600;SDS011;34891;48.164;11.572;2023-05-27T22:11:02;7.67;;;3.10;;
16600;SDS011;34891;48.164;11.572;2023-05-27T22:16:05;8.35;;;3.00;;
16600;SDS011;34891;48.164;11.572;2023-05-27T22:21:08;9.05;;;2.97;;
16600;SDS011;34891;48.164;11.572;2023-05-27T22:26:30;7.63;;;3.00;;
16600;SDS011;34891;48.164;11.572;2023-05-27T22:31:33;6.63;;;3.00;;
16600;SDS011;34891;48.164;11.572;2023-05-27T22:36:36;8.53;;;3.17;;
16600;SDS011;34891;48.164;11.572;2023-05-27T22:41:40;8.95;;;3.40;;
16600;SDS011;34891;48.164;11.572;2023-05-27T22:51:46;54.63;;;19.23;;
16600;SDS011;34891;48.164;11.572;2023-05-27T22:56:50;7.03;;;3.50;;
16600;SDS011;34891;48.164;11.572;2023-05-27T23:01:53;6.28;;;2.95;;
16600;SDS011;34891;48.164;11.572;2023-05-27T23:06:55;9.68;;;3.00;;
16600;SDS011;34891;48.164;11.572;2023-05-27T23:11:59;7.60;;;2.55;;
16600;SDS011;34891;48.164;11.572;2023-05-27T23:17:02;13.55;;;3.03;;
16600;SDS011;34891;48.164;11.572;2023-05-27T23:22:05;7.63;;;3.23;;
16600;SDS011;34891;48.164;11.572;2023-05-27T23:27:09;9.45;;;2.67;;
16600;SDS011;34891;48.164;11.572;2023-05-27T23:32:12;12.18;;;3.42;;
16600;SDS011;34891;48.164;11.572;2023-05-27T23:37:15;7.07;;;2.80;;
16600;SDS011;34891;48.164;11.572;2023-05-27T23:42:19;9.02;;;2.97;;
16600;SDS011;34891;48.164;11.572;2023-05-27T23:47:21;5.90;;;2.90;;
16600;SDS011;34891;48.164;11.572;2023-05-27T23:52:25;8.48;;;2.70;;
16600;SDS011;34891;48.164;11.572;2023-05-27T23:57:29;10.68;;;3.22;;
